Terminal Aerodrome Forecast
Issued by NWS

Home | Current Version | Previous Version | Text Only | Print | Product List | Glossary On
Versions: 1 2 3 4 5 6 7 8 9 10 11 12 13 14
000
FTUS46 KMTR 262342
TAFSNS
TAF
KSNS 262342Z 2700/2724 27007KT P6SM FEW060 OVC090
     FM270300 26006KT P6SM -RA SCT008 BKN012 OVC030
     FM270800 VRB03KT P6SM VCSH OVC025
     FM271600 27003KT P6SM SCT025 BKN100
     FM271800 28012KT P6SM FEW030
     FM272100 27015G25KT P6SM FEW035=

USA.gov is the U.S. government's official web portal to all federal, state and local government web resources and services.